sensor_id;sensor_type;location;lat;lon;timestamp;temperature;humidity
41944;DHT22;27636;52.610;13.244;2023-04-01T00:01:56;9.30;99.90
41944;DHT22;27636;52.610;13.244;2023-04-01T00:07:01;9.30;99.90
41944;DHT22;27636;52.610;13.244;2023-04-01T00:12:07;9.30;99.90
41944;DHT22;27636;52.610;13.244;2023-04-01T00:17:10;9.20;99.90
41944;DHT22;27636;52.610;13.244;2023-04-01T00:22:13;9.20;99.90
41944;DHT22;27636;52.610;13.244;2023-04-01T00:27:19;9.20;99.90
41944;DHT22;27636;52.610;13.244;2023-04-01T00:32:22;9.30;99.90
41944;DHT22;27636;52.610;13.244;2023-04-01T00:37:26;9.30;99.90
41944;DHT22;27636;52.610;13.244;2023-04-01T00:42:31;9.30;99.90
41944;DHT22;27636;52.610;13.244;2023-04-01T00:47:35;9.30;99.90
41944;DHT22;27636;52.610;13.244;2023-04-01T00:52:38;9.30;99.90
41944;DHT22;27636;52.610;13.244;2023-04-01T00:57:45;9.30;99.90
41944;DHT22;27636;52.610;13.244;2023-04-01T01:02:50;9.30;99.90
41944;DHT22;27636;52.610;13.244;2023-04-01T01:08:01;9.30;99.90
41944;DHT22;27636;52.610;13.244;2023-04-01T01:13:12;9.20;99.90
41944;DHT22;27636;52.610;13.244;2023-04-01T01:18:24;9.20;99.90
41944;DHT22;27636;52.610;13.244;2023-04-01T01:29:40;9.20;99.90
41944;DHT22;27636;52.610;13.244;2023-04-01T01:34:49;9.20;99.90
41944;DHT22;27636;52.610;13.244;2023-04-01T01:40:00;9.20;99.90
41944;DHT22;27636;52.610;13.244;2023-04-01T01:45:09;9.20;99.90
41944;DHT22;27636;52.610;13.244;2023-04-01T01:50:14;9.20;99.90
41944;DHT22;27636;52.610;13.244;2023-04-01T01:55:29;9.20;99.90
41944;DHT22;27636;52.610;13.244;2023-04-01T02:00:35;9.20;99.90
41944;DHT22;27636;52.610;13.244;2023-04-01T02:05:39;9.20;99.90
41944;DHT22;27636;52.610;13.244;2023-04-01T02:10:52;9.20;99.90
41944;DHT22;27636;52.610;13.244;2023-04-01T02:16:00;9.30;99.90
41944;DHT22;27636;52.610;13.244;2023-04-01T02:21:05;9.30;99.90
41944;DHT22;27636;52.610;13.244;2023-04-01T02:26:13;9.20;99.90
41944;DHT22;27636;52.610;13.244;2023-04-01T02:31:17;9.20;99.90
41944;DHT22;27636;52.610;13.244;2023-04-01T02:36:21;9.20;99.90
41944;DHT22;27636;52.610;13.244;2023-04-01T02:41:26;9.20;99.90
41944;DHT22;27636;52.610;13.244;2023-04-01T02:46:32;9.20;99.90
41944;DHT22;27636;52.610;13.244;2023-04-01T02:51:35;9.40;99.90
41944;DHT22;27636;52.610;13.244;2023-04-01T02:56:41;9.10;99.90
41944;DHT22;27636;52.610;13.244;2023-04-01T03:01:44;9.10;99.90
41944;DHT22;27636;52.610;13.244;2023-04-01T03:06:49;9.10;99.90
41944;DHT22;27636;52.610;13.244;2023-04-01T03:11:54;9.10;99.90
41944;DHT22;27636;52.610;13.244;2023-04-01T03:17:00;9.10;99.90
41944;DHT22;27636;52.610;13.244;2023-04-01T03:22:04;9.10;99.90
41944;DHT22;27636;52.610;13.244;2023-04-01T03:27:09;9.20;99.90
41944;DHT22;27636;52.610;13.244;2023-04-01T03:32:12;9.30;99.90
41944;DHT22;27636;52.610;13.244;2023-04-01T03:37:16;9.20;99.90
41944;DHT22;27636;52.610;13.244;2023-04-01T03:42:21;9.20;99.90
41944;DHT22;27636;52.610;13.244;2023-04-01T03:47:25;9.20;99.90
41944;DHT22;27636;52.610;13.244;2023-04-01T03:52:28;9.20;99.90
41944;DHT22;27636;52.610;13.244;2023-04-01T03:57:33;9.20;99.90
41944;DHT22;27636;52.610;13.244;2023-04-01T04:02:48;9.20;99.90
41944;DHT22;27636;52.610;13.244;2023-04-01T04:07:57;9.10;99.90
41944;DHT22;27636;52.610;13.244;2023-04-01T04:13:01;9.10;99.90
41944;DHT22;27636;52.610;13.244;2023-04-01T04:18:06;9.10;99.90
41944;DHT22;27636;52.610;13.244;2023-04-01T04:23:10;9.20;99.90
41944;DHT22;27636;52.610;13.244;2023-04-01T04:28:15;9.20;99.90
41944;DHT22;27636;52.610;13.244;2023-04-01T04:33:19;9.20;99.90
41944;DHT22;27636;52.610;13.244;2023-04-01T04:38:23;9.20;99.90
41944;DHT22;27636;52.610;13.244;2023-04-01T04:43:28;9.20;99.90
41944;DHT22;27636;52.610;13.244;2023-04-01T04:48:32;9.20;99.90
41944;DHT22;27636;52.610;13.244;2023-04-01T04:53:36;9.20;99.90
41944;DHT22;27636;52.610;13.244;2023-04-01T04:58:41;9.20;99.90
41944;DHT22;27636;52.610;13.244;2023-04-01T05:03:50;9.20;99.90
41944;DHT22;27636;52.610;13.244;2023-04-01T05:08:55;9.20;99.90
41944;DHT22;27636;52.610;13.244;2023-04-01T05:14:00;9.30;99.90
41944;DHT22;27636;52.610;13.244;2023-04-01T05:19:04;9.30;99.90
41944;DHT22;27636;52.610;13.244;2023-04-01T05:24:08;9.40;99.90
41944;DHT22;27636;52.610;13.244;2023-04-01T05:29:14;9.40;99.90
41944;DHT22;27636;52.610;13.244;2023-04-01T05:34:19;9.40;99.90
41944;DHT22;27636;52.610;13.244;2023-04-01T05:39:23;9.40;99.90
41944;DHT22;27636;52.610;13.244;2023-04-01T05:44:28;9.40;99.90
41944;DHT22;27636;52.610;13.244;2023-04-01T05:49:37;9.40;99.90
41944;DHT22;27636;52.610;13.244;2023-04-01T05:54:41;9.50;99.90
41944;DHT22;27636;52.610;13.244;2023-04-01T05:59:46;9.50;99.90
41944;DHT22;27636;52.610;13.244;2023-04-01T06:04:59;9.50;99.90
41944;DHT22;27636;52.610;13.244;2023-04-01T06:10:12;9.60;99.90
41944;DHT22;27636;52.610;13.244;2023-04-01T06:15:25;9.70;99.90
41944;DHT22;27636;52.610;13.244;2023-04-01T06:20:42;9.80;99.90
41944;DHT22;27636;52.610;13.244;2023-04-01T06:26:02;9.80;99.90
41944;DHT22;27636;52.610;13.244;2023-04-01T06:31:24;9.90;99.90
41944;DHT22;27636;52.610;13.244;2023-04-01T06:36:47;9.90;99.90
41944;DHT22;27636;52.610;13.244;2023-04-01T06:42:13;10.00;99.90
41944;DHT22;27636;52.610;13.244;2023-04-01T06:47:29;10.00;99.90
41944;DHT22;27636;52.610;13.244;2023-04-01T06:52:59;10.00;99.90
41944;DHT22;27636;52.610;13.244;2023-04-01T06:58:25;9.90;99.90
41944;DHT22;27636;52.610;13.244;2023-04-01T07:03:34;10.00;99.90
41944;DHT22;27636;52.610;13.244;2023-04-01T07:08:43;10.10;99.90
41944;DHT22;27636;52.610;13.244;2023-04-01T07:13:51;10.20;99.90
41944;DHT22;27636;52.610;13.244;2023-04-01T07:19:01;10.20;99.90
41944;DHT22;27636;52.610;13.244;2023-04-01T07:24:23;10.20;99.90
41944;DHT22;27636;52.610;13.244;2023-04-01T07:29:39;10.30;99.90
41944;DHT22;27636;52.610;13.244;2023-04-01T07:34:54;10.50;99.90
41944;DHT22;27636;52.610;13.244;2023-04-01T07:40:10;10.60;99.90
41944;DHT22;27636;52.610;13.244;2023-04-01T07:45:23;10.50;99.90
41944;DHT22;27636;52.610;13.244;2023-04-01T07:50:32;10.60;99.90
41944;DHT22;27636;52.610;13.244;2023-04-01T07:55:42;10.40;99.90
41944;DHT22;27636;52.610;13.244;2023-04-01T08:00:51;10.40;99.90
41944;DHT22;27636;52.610;13.244;2023-04-01T08:06:09;10.00;99.90
41944;DHT22;27636;52.610;13.244;2023-04-01T08:11:25;9.60;99.90
41944;DHT22;27636;52.610;13.244;2023-04-01T08:16:56;9.70;99.90
41944;DHT22;27636;52.610;13.244;2023-04-01T08:22:16;9.60;99.90
41944;DHT22;27636;52.610;13.244;2023-04-01T08:27:26;9.60;99.90
41944;DHT22;27636;52.610;13.244;2023-04-01T08:32:35;9.80;99.90
41944;DHT22;27636;52.610;13.244;2023-04-01T08:37:43;9.70;99.90
41944;DHT22;27636;52.610;13.244;2023-04-01T08:43:02;9.60;99.90
41944;DHT22;27636;52.610;13.244;2023-04-01T08:48:36;9.50;99.90
41944;DHT22;27636;52.610;13.244;2023-04-01T08:54:05;9.50;99.90
41944;DHT22;27636;52.610;13.244;2023-04-01T08:59:31;9.40;99.90
41944;DHT22;27636;52.610;13.244;2023-04-01T09:05:08;9.50;99.90
41944;DHT22;27636;52.610;13.244;2023-04-01T09:10:39;9.40;99.90
41944;DHT22;27636;52.610;13.244;2023-04-01T09:16:34;9.30;99.90
41944;DHT22;27636;52.610;13.244;2023-04-01T09:21:59;9.40;99.90
41944;DHT22;27636;52.610;13.244;2023-04-01T09:27:10;9.50;99.90
41944;DHT22;27636;52.610;13.244;2023-04-01T09:32:33;9.60;99.90
41944;DHT22;27636;52.610;13.244;2023-04-01T09:38:00;9.70;99.90
41944;DHT22;27636;52.610;13.244;2023-04-01T09:43:26;10.00;99.90
41944;DHT22;27636;52.610;13.244;2023-04-01T09:48:44;10.20;99.90
41944;DHT22;27636;52.610;13.244;2023-04-01T09:54:01;10.00;99.90
41944;DHT22;27636;52.610;13.244;2023-04-01T09:59:48;9.90;99.90
41944;DHT22;27636;52.610;13.244;2023-04-01T10:23:22;9.80;99.90
41944;DHT22;27636;52.610;13.244;2023-04-01T10:29:00;9.70;99.90
41944;DHT22;27636;52.610;13.244;2023-04-01T10:40:13;9.60;99.90
41944;DHT22;27636;52.610;13.244;2023-04-01T10:46:05;9.50;99.90
41944;DHT22;27636;52.610;13.244;2023-04-01T10:51:25;9.10;99.90
41944;DHT22;27636;52.610;13.244;2023-04-01T10:56:42;9.40;99.90
41944;DHT22;27636;52.610;13.244;2023-04-01T11:02:33;9.10;99.90
41944;DHT22;27636;52.610;13.244;2023-04-01T11:20:42;9.50;99.90
41944;DHT22;27636;52.610;13.244;2023-04-01T11:25:54;9.40;99.90
41944;DHT22;27636;52.610;13.244;2023-04-01T11:31:32;9.40;99.90
41944;DHT22;27636;52.610;13.244;2023-04-01T11:36:46;9.30;99.90
41944;DHT22;27636;52.610;13.244;2023-04-01T11:42:08;9.40;99.90
41944;DHT22;27636;52.610;13.244;2023-04-01T11:47:41;9.10;99.90
41944;DHT22;27636;52.610;13.244;2023-04-01T11:58:44;9.20;99.90
41944;DHT22;27636;52.610;13.244;2023-04-01T12:04:04;9.00;99.90
41944;DHT22;27636;52.610;13.244;2023-04-01T12:09:22;8.90;99.90
41944;DHT22;27636;52.610;13.244;2023-04-01T12:14:35;8.60;99.90
41944;DHT22;27636;52.610;13.244;2023-04-01T12:19:46;8.40;99.90
41944;DHT22;27636;52.610;13.244;2023-04-01T12:24:59;8.30;99.90
41944;DHT22;27636;52.610;13.244;2023-04-01T12:30:36;8.30;99.90
41944;DHT22;27636;52.610;13.244;2023-04-01T12:35:52;8.10;99.90
41944;DHT22;27636;52.610;13.244;2023-04-01T12:41:12;8.20;99.90
41944;DHT22;27636;52.610;13.244;2023-04-01T12:46:25;8.40;99.90
41944;DHT22;27636;52.610;13.244;2023-04-01T12:51:58;8.30;99.90
41944;DHT22;27636;52.610;13.244;2023-04-01T12:57:19;8.10;99.90
41944;DHT22;27636;52.610;13.244;2023-04-01T13:02:37;8.30;99.90
41944;DHT22;27636;52.610;13.244;2023-04-01T13:07:59;8.20;99.90
41944;DHT22;27636;52.610;13.244;2023-04-01T13:18:43;8.40;99.90
41944;DHT22;27636;52.610;13.244;2023-04-01T13:23:56;8.20;99.90
41944;DHT22;27636;52.610;13.244;2023-04-01T13:29:11;8.10;99.90
41944;DHT22;27636;52.610;13.244;2023-04-01T13:34:27;8.10;99.90
41944;DHT22;27636;52.610;13.244;2023-04-01T13:39:42;8.10;99.90
41944;DHT22;27636;52.610;13.244;2023-04-01T13:44:53;8.00;99.90
41944;DHT22;27636;52.610;13.244;2023-04-01T13:50:16;7.90;99.90
41944;DHT22;27636;52.610;13.244;2023-04-01T13:55:30;7.80;99.90
41944;DHT22;27636;52.610;13.244;2023-04-01T14:00:50;7.60;99.90
41944;DHT22;27636;52.610;13.244;2023-04-01T14:06:11;7.40;99.90
41944;DHT22;27636;52.610;13.244;2023-04-01T14:11:19;7.50;99.90
41944;DHT22;27636;52.610;13.244;2023-04-01T14:17:01;7.50;99.90
41944;DHT22;27636;52.610;13.244;2023-04-01T14:22:16;7.30;99.90
41944;DHT22;27636;52.610;13.244;2023-04-01T14:27:35;7.30;99.90
41944;DHT22;27636;52.610;13.244;2023-04-01T14:32:46;7.20;99.90
41944;DHT22;27636;52.610;13.244;2023-04-01T14:38:16;7.30;99.90
41944;DHT22;27636;52.610;13.244;2023-04-01T14:43:46;7.30;99.90
41944;DHT22;27636;52.610;13.244;2023-04-01T14:48:51;7.30;99.90
41944;DHT22;27636;52.610;13.244;2023-04-01T14:54:03;7.30;99.90
41944;DHT22;27636;52.610;13.244;2023-04-01T14:59:16;7.10;99.90
41944;DHT22;27636;52.610;13.244;2023-04-01T15:04:37;6.90;99.90
41944;DHT22;27636;52.610;13.244;2023-04-01T15:09:52;7.00;99.90
41944;DHT22;27636;52.610;13.244;2023-04-01T15:15:10;7.00;99.90
41944;DHT22;27636;52.610;13.244;2023-04-01T15:31:48;6.80;99.90
41944;DHT22;27636;52.610;13.244;2023-04-01T15:36:58;6.80;99.90
41944;DHT22;27636;52.610;13.244;2023-04-01T15:42:25;6.70;99.90
41944;DHT22;27636;52.610;13.244;2023-04-01T15:47:40;6.70;99.90
41944;DHT22;27636;52.610;13.244;2023-04-01T15:52:50;6.70;99.90
41944;DHT22;27636;52.610;13.244;2023-04-01T15:58:21;6.60;99.90
41944;DHT22;27636;52.610;13.244;2023-04-01T16:03:37;6.60;99.90
41944;DHT22;27636;52.610;13.244;2023-04-01T16:08:55;6.50;99.90
41944;DHT22;27636;52.610;13.244;2023-04-01T16:14:16;6.40;99.90
41944;DHT22;27636;52.610;13.244;2023-04-01T16:19:37;6.30;99.90
41944;DHT22;27636;52.610;13.244;2023-04-01T16:24:48;6.20;99.90
41944;DHT22;27636;52.610;13.244;2023-04-01T16:30:00;6.20;99.90
41944;DHT22;27636;52.610;13.244;2023-04-01T16:35:31;6.20;99.90
41944;DHT22;27636;52.610;13.244;2023-04-01T16:40:46;6.20;99.90
41944;DHT22;27636;52.610;13.244;2023-04-01T16:51:41;6.20;99.90
41944;DHT22;27636;52.610;13.244;2023-04-01T16:56:53;6.20;99.90
41944;DHT22;27636;52.610;13.244;2023-04-01T17:02:07;6.10;99.90
41944;DHT22;27636;52.610;13.244;2023-04-01T17:07:23;6.00;99.90
41944;DHT22;27636;52.610;13.244;2023-04-01T17:12:36;5.90;99.90
41944;DHT22;27636;52.610;13.244;2023-04-01T17:17:50;5.80;99.90
41944;DHT22;27636;52.610;13.244;2023-04-01T17:23:01;5.80;99.90
41944;DHT22;27636;52.610;13.244;2023-04-01T17:28:19;5.80;99.90
41944;DHT22;27636;52.610;13.244;2023-04-01T17:39:19;5.60;99.90
41944;DHT22;27636;52.610;13.244;2023-04-01T17:44:38;5.50;99.90
41944;DHT22;27636;52.610;13.244;2023-04-01T17:49:55;5.40;99.90
41944;DHT22;27636;52.610;13.244;2023-04-01T17:55:23;5.40;99.90
41944;DHT22;27636;52.610;13.244;2023-04-01T18:00:33;5.30;99.90
41944;DHT22;27636;52.610;13.244;2023-04-01T18:06:03;5.30;99.90
41944;DHT22;27636;52.610;13.244;2023-04-01T18:11:19;5.20;99.90
41944;DHT22;27636;52.610;13.244;2023-04-01T18:16:43;5.20;99.90
41944;DHT22;27636;52.610;13.244;2023-04-01T18:21:52;5.10;99.90
41944;DHT22;27636;52.610;13.244;2023-04-01T18:27:04;5.10;99.90
41944;DHT22;27636;52.610;13.244;2023-04-01T18:32:15;5.00;99.90
41944;DHT22;27636;52.610;13.244;2023-04-01T18:37:27;5.00;99.90
41944;DHT22;27636;52.610;13.244;2023-04-01T18:42:41;5.00;99.90
41944;DHT22;27636;52.610;13.244;2023-04-01T18:47:57;5.00;99.90
41944;DHT22;27636;52.610;13.244;2023-04-01T18:53:13;4.90;99.90
41944;DHT22;27636;52.610;13.244;2023-04-01T18:58:28;4.90;99.90
41944;DHT22;27636;52.610;13.244;2023-04-01T19:03:38;4.80;99.90
41944;DHT22;27636;52.610;13.244;2023-04-01T19:08:46;4.80;99.90
41944;DHT22;27636;52.610;13.244;2023-04-01T19:13:57;4.70;99.90
41944;DHT22;27636;52.610;13.244;2023-04-01T19:19:18;4.60;99.90
41944;DHT22;27636;52.610;13.244;2023-04-01T19:30:26;4.60;99.90
41944;DHT22;27636;52.610;13.244;2023-04-01T19:35:38;4.50;99.90
41944;DHT22;27636;52.610;13.244;2023-04-01T19:40:53;4.50;99.90
41944;DHT22;27636;52.610;13.244;2023-04-01T19:46:04;4.50;99.90
41944;DHT22;27636;52.610;13.244;2023-04-01T19:51:15;4.50;99.90
41944;DHT22;27636;52.610;13.244;2023-04-01T19:56:23;4.50;99.90
41944;DHT22;27636;52.610;13.244;2023-04-01T20:01:34;4.40;99.90
41944;DHT22;27636;52.610;13.244;2023-04-01T20:06:52;4.20;99.90
41944;DHT22;27636;52.610;13.244;2023-04-01T20:12:00;4.20;99.90
41944;DHT22;27636;52.610;13.244;2023-04-01T20:17:16;4.20;99.90
41944;DHT22;27636;52.610;13.244;2023-04-01T20:22:38;4.10;99.90
41944;DHT22;27636;52.610;13.244;2023-04-01T20:27:58;4.10;99.90
41944;DHT22;27636;52.610;13.244;2023-04-01T20:39:11;4.10;99.90
41944;DHT22;27636;52.610;13.244;2023-04-01T20:44:31;4.00;99.90
41944;DHT22;27636;52.610;13.244;2023-04-01T20:49:47;4.00;99.90
41944;DHT22;27636;52.610;13.244;2023-04-01T20:55:29;4.00;99.90
41944;DHT22;27636;52.610;13.244;2023-04-01T21:00:45;3.90;99.90
41944;DHT22;27636;52.610;13.244;2023-04-01T21:06:09;3.90;99.90
41944;DHT22;27636;52.610;13.244;2023-04-01T21:11:20;3.90;99.90
41944;DHT22;27636;52.610;13.244;2023-04-01T21:16:36;3.80;99.90
41944;DHT22;27636;52.610;13.244;2023-04-01T21:21:53;3.80;99.90
41944;DHT22;27636;52.610;13.244;2023-04-01T21:27:09;3.90;99.90
41944;DHT22;27636;52.610;13.244;2023-04-01T21:32:30;3.80;99.90
41944;DHT22;27636;52.610;13.244;2023-04-01T21:37:49;3.80;99.90
41944;DHT22;27636;52.610;13.244;2023-04-01T21:43:04;3.80;99.90
41944;DHT22;27636;52.610;13.244;2023-04-01T21:48:29;3.70;99.90
41944;DHT22;27636;52.610;13.244;2023-04-01T21:59:48;3.70;99.90
41944;DHT22;27636;52.610;13.244;2023-04-01T22:05:07;3.70;99.90
41944;DHT22;27636;52.610;13.244;2023-04-01T22:10:21;3.70;99.90
41944;DHT22;27636;52.610;13.244;2023-04-01T22:15:40;3.70;99.90
41944;DHT22;27636;52.610;13.244;2023-04-01T22:20:55;3.70;99.90
41944;DHT22;27636;52.610;13.244;2023-04-01T22:26:09;3.60;99.90
41944;DHT22;27636;52.610;13.244;2023-04-01T22:31:17;3.70;99.90
41944;DHT22;27636;52.610;13.244;2023-04-01T22:36:29;3.70;99.90
41944;DHT22;27636;52.610;13.244;2023-04-01T22:41:51;3.70;99.90
41944;DHT22;27636;52.610;13.244;2023-04-01T22:47:02;3.70;99.90
41944;DHT22;27636;52.610;13.244;2023-04-01T22:52:15;3.70;99.90
41944;DHT22;27636;52.610;13.244;2023-04-01T22:57:37;3.70;99.90
41944;DHT22;27636;52.610;13.244;2023-04-01T23:02:47;3.70;99.90
41944;DHT22;27636;52.610;13.244;2023-04-01T23:07:56;3.70;99.90
41944;DHT22;27636;52.610;13.244;2023-04-01T23:13:10;3.70;99.90
41944;DHT22;27636;52.610;13.244;2023-04-01T23:18:21;3.60;99.90
41944;DHT22;27636;52.610;13.244;2023-04-01T23:23:43;3.60;99.90
41944;DHT22;27636;52.610;13.244;2023-04-01T23:28:52;3.60;99.90
41944;DHT22;27636;52.610;13.244;2023-04-01T23:33:58;3.60;99.90
41944;DHT22;27636;52.610;13.244;2023-04-01T23:39:18;3.60;99.90
41944;DHT22;27636;52.610;13.244;2023-04-01T23:44:26;3.50;99.90
41944;DHT22;27636;52.610;13.244;2023-04-01T23:49:34;3.50;99.90
41944;DHT22;27636;52.610;13.244;2023-04-01T23:54:43;3.50;99.90
